| time (UTC) | temp C | wind direction | speed KPH | gust KPH | rain 1hr cm | rain 24hr cm | rain mn cm | humidity % | barometer mb |
| 20260510203021 | 21 | 301 | 8.0 | 17.7 | 0.00 | 0.00 | 0.00 | 42 | 1019.9 |
| 20260510201521 | 21 | 346 | 6.4 | 19.3 | 0.00 | 0.00 | 0.00 | 42 | 1020.1 |
| 20260510200022 | 21 | 31 | 4.8 | 17.7 | 0.00 | 0.00 | 0.00 | 42 | 1020.1 |
| 20260510194511 | 21 | 28 | 6.4 | 17.7 | 0.00 | 0.00 | 0.00 | 41 | 1020.2 |
| 20260510193014 | 21 | 31 | 6.4 | 16.1 | 0.00 | 0.00 | 0.00 | 38 | 1020.1 |
| 20260510191523 | 21 | 351 | 6.4 | 17.7 | 0.00 | 0.00 | 0.00 | 42 | 1020.2 |
| 20260510190040 | 21 | 44 | 6.4 | 16.1 | 0.00 | 0.00 | 0.00 | 42 | 1020.4 |
| 20260510184528 | 21 | 50 | 8.0 | 17.7 | 0.00 | 0.00 | 0.00 | 41 | 1020.3 |
| 20260510181520 | 20 | 52 | 4.8 | 14.5 | 0.00 | 0.00 | 0.00 | 42 | 1020.1 |
| 20260510180026 | 20 | 46 | 3.2 | 16.1 | 0.00 | 0.00 | 0.00 | 46 | 1019.8 |
| 20260510174526 | 20 | 310 | 8.0 | 16.1 | 0.00 | 0.00 | 0.00 | 43 | 1019.8 |
| 20260510173009 | 20 | 19 | 6.4 | 17.7 | 0.00 | 0.00 | 0.00 | 44 | 1019.9 |
| 20260510171519 | 19 | 82 | 4.8 | 19.3 | 0.00 | 0.00 | 0.00 | 44 | 1019.8 |
| 20260510170022 | 19 | 90 | 8.0 | 20.9 | 0.00 | 0.00 | 0.00 | 45 | 1019.6 |
| 20260510164524 | 18 | 43 | 9.7 | 17.7 | 0.00 | 0.00 | 0.00 | 46 | 1019.8 |
| 20260510163027 | 18 | 46 | 6.4 | 19.3 | 0.00 | 0.00 | 0.00 | 49 | 1019.7 |
| 20260510161515 | 18 | 56 | 6.4 | 17.7 | 0.00 | 0.00 | 0.00 | 49 | 1019.4 |
| 20260510160021 | 18 | 352 | 6.4 | 22.5 | 0.00 | 0.00 | 0.00 | 53 | 1019.4 |
| 20260510154526 | 17 | 105 | 3.2 | 17.7 | 0.00 | 0.00 | 0.00 | 55 | 1019.1 |
| 20260510153040 | 17 | 325 | 3.2 | 12.9 | 0.00 | 0.00 | 0.00 | 58 | 1019.2 |
| 20260510151528 | 17 | 59 | 4.8 | 16.1 | 0.00 | 0.00 | 0.00 | 57 | 1019.2 |
| 20260510150019 | 17 | 90 | 3.2 | 16.1 | 0.00 | 0.00 | 0.00 | 58 | 1019.4 |
| 20260510144542 | 17 | 22 | 6.4 | 20.9 | 0.00 | 0.00 | 0.00 | 58 | 1019.3 |
| 20260510143026 | 17 | 22 | 8.0 | 17.7 | 0.00 | 0.00 | 0.00 | 61 | 1019.2 |
| 20260510140016 | 17 | 28 | 4.8 | 14.5 | 0.00 | 0.00 | 0.00 | 67 | 1018.5 |
| 20260510134520 | 16 | 26 | 9.7 | 25.7 | 0.00 | 0.00 | 0.00 | 66 | 1018.3 |
| 20260510131510 | 16 | 341 | 6.4 | 20.9 | 0.00 | 0.00 | 0.00 | 74 | 1018.0 |
| 20260510130016 | 16 | 65 | 4.8 | 12.9 | 0.00 | 0.00 | 0.00 | 76 | 1017.7 |
| 20260510124521 | 15 | 34 | 1.6 | 8.0 | 0.00 | 0.00 | 0.00 | 79 | 1017.5 |
| 20260510123006 | 13 | 345 | 3.2 | 8.0 | 0.00 | 0.00 | 0.00 | 82 | 1017.3 |
| 20260510121506 | 13 | 325 | 1.6 | 4.8 | 0.00 | 0.00 | 0.00 | 86 | 1017.2 |
| 20260510120017 | 12 | 313 | 0.0 | 3.2 | 0.00 | 0.00 | 0.00 | 86 | 1017.2 |
| 20260510114518 | 12 | 324 | 0.0 | 0.0 | 0.00 | 0.00 | 0.00 | 87 | 1016.8 |
| 20260510113024 | 12 | 300 | 0.0 | 0.0 | 0.00 | 0.00 | 0.00 | 87 | 1016.5 |
| 20260510111506 | 12 | 289 | 0.0 | 3.2 | 0.00 | 0.00 | 0.00 | 88 | 1016.3 |
| 20260510110018 | 12 | 212 | 0.0 | 3.2 | 0.00 | 0.00 | 0.00 | 85 | 1015.9 |
| 20260510104517 | 12 | 210 | 0.0 | 3.2 | 0.00 | 0.00 | 0.00 | 85 | 1015.9 |
| 20260510103023 | 12 | 278 | 0.0 | 3.2 | 0.00 | 0.00 | 0.00 | 83 | 1015.8 |
| 20260510101525 | 12 | 294 | 0.0 | 3.2 | 0.00 | 0.00 | 0.00 | 83 | 1015.6 |
| 20260510100009 | 12 | 312 | 0.0 | 1.6 | 0.00 | 0.00 | 0.00 | 85 | 1015.3 |
| 20260510094516 | 12 | 229 | 0.0 | 1.6 | 0.00 | 0.03 | 0.00 | 83 | 1015.0 |
| 20260510093021 | 13 | 229 | 0.0 | 3.2 | 0.00 | 0.03 | 0.00 | 82 | 1014.8 |
| 20260510091526 | 13 | 321 | 0.0 | 3.2 | 0.00 | 0.03 | 0.00 | 82 | 1014.9 |
| 20260510090026 | 12 | 323 | 0.0 | 4.8 | 0.00 | 0.03 | 0.00 | 83 | 1014.6 |
| 20260510080023 | 12 | 113 | 0.0 | 0.0 | 0.00 | 0.03 | 0.00 | 83 | 1014.4 |
| 20260510074513 | 12 | 113 | 0.0 | 0.0 | 0.00 | 0.03 | 0.00 | 82 | 1014.2 |
| 20260510073017 | 12 | 113 | 0.0 | 0.0 | 0.00 | 0.03 | 0.00 | 81 | 1014.1 |
| 20260510071523 | 12 | 113 | 0.0 | 3.2 | 0.00 | 0.03 | 0.00 | 81 | 1014.2 |
| 20260510070025 | 12 | 113 | 0.0 | 0.0 | 0.00 | 0.03 | 0.00 | 80 | 1014.2 |
| 20260510064523 | 13 | 112 | 0.0 | 1.6 | 0.00 | 0.03 | 0.00 | 79 | 1014.2 |
| 20260510063014 | 13 | 87 | 0.0 | 4.8 | 0.00 | 0.03 | 0.00 | 78 | 1014.2 |
| 20260510061522 | 13 | 84 | 0.0 | 0.0 | 0.00 | 0.03 | 0.00 | 77 | 1014.1 |
| 20260510060035 | 14 | 107 | 0.0 | 3.2 | 0.00 | 0.03 | 0.00 | 75 | 1014.2 |
| 20260510054526 | 15 | 139 | 0.0 | 3.2 | 0.00 | 0.03 | 0.00 | 72 | 1014.2 |
| 20260510053025 | 15 | 247 | 0.0 | 3.2 | 0.00 | 0.03 | 0.00 | 68 | 1014.3 |
| 20260510051517 | 15 | 273 | 1.6 | 6.4 | 0.00 | 0.03 | 0.00 | 68 | 1014.2 |
| 20260510041517 | 14 | 142 | 3.2 | 4.8 | 0.00 | 0.03 | 0.03 | 74 | 1013.2 |
| 20260510040022 | 15 | 116 | 4.8 | 11.3 | 0.00 | 0.03 | 0.03 | 74 | 1013.0 |
| 20260510031515 | 14 | 122 | 0.0 | 0.0 | 0.00 | 0.05 | 0.03 | 76 | 1012.8 |
| 20260510030025 | 15 | 122 | 0.0 | 0.0 | 0.00 | 0.08 | 0.03 | 74 | 1012.8 |
| 20260510024531 | 15 | 122 | 0.0 | 0.0 | 0.00 | 0.08 | 0.03 | 71 | 1012.4 |
| 20260510023007 | 16 | 122 | 1.6 | 3.2 | 0.00 | 0.08 | 0.03 | 69 | 1011.9 |
| 20260510021509 | 16 | 117 | 1.6 | 3.2 | 0.00 | 0.08 | 0.03 | 72 | 1011.8 |
| 20260510004521 | 22 | 200 | 0.0 | 0.0 | 0.00 | 0.08 | 0.03 | 55 | 1010.6 |
| 20260509230011 | 27 | 265 | 3.2 | 8.0 | 0.00 | 0.08 | 0.03 | 34 | 1010.3 |
| 20260509221506 | 27 | 254 | 0.0 | 8.0 | 0.00 | 0.08 | 0.03 | 32 | 1010.3 |
| 20260509220014 | 27 | 222 | 3.2 | 8.0 | 0.00 | 0.08 | 0.03 | 33 | 1010.2 |
| 20260509214515 | 27 | 198 | 4.8 | 14.5 | 0.00 | 0.08 | 0.03 | 33 | 1010.4 |
| 20260509213020 | 27 | 221 | 6.4 | 12.9 | 0.00 | 0.08 | 0.03 | 33 | 1010.3 |
| 20260509211503 | 27 | 15 | 3.2 | 14.5 | 0.00 | 0.08 | 0.03 | 34 | 1010.5 |
| 20260509210009 | 27 | 11 | 4.8 | 12.9 | 0.00 | 0.08 | 0.03 | 31 | 1010.8 |
| 20260509204514 | 27 | 17 | 3.2 | 11.3 | 0.00 | 0.08 | 0.03 | 32 | 1010.9 |